createdAt,value
2019-01-09T00:01:01.834Z,4.40
2019-01-09T00:03:33.166Z,4.40
2019-01-09T00:06:04.695Z,4.40
2019-01-09T00:08:36.282Z,4.40
2019-01-09T00:11:07.731Z,4.40
2019-01-09T00:13:39.893Z,4.50
2019-01-09T00:16:12.168Z,4.40
2019-01-09T00:18:43.528Z,4.40
2019-01-09T00:21:14.944Z,4.40
2019-01-09T00:23:47.133Z,4.40
2019-01-09T00:26:18.468Z,4.40
2019-01-09T00:28:51.575Z,4.40
2019-01-09T00:31:23.166Z,4.40
2019-01-09T00:33:54.477Z,4.50
2019-01-09T00:36:25.933Z,4.50
2019-01-09T00:38:57.579Z,4.50
2019-01-09T00:41:29.114Z,4.40
2019-01-09T00:44:00.717Z,4.50
2019-01-09T00:46:32.048Z,4.40
2019-01-09T00:49:03.710Z,4.40
2019-01-09T00:51:35.121Z,4.40
2019-01-09T00:54:06.569Z,4.40
2019-01-09T00:56:38.155Z,4.40
2019-01-09T00:59:10.034Z,4.40
2019-01-09T01:01:41.364Z,4.40
2019-01-09T01:04:59.357Z,4.30
2019-01-09T01:08:00.168Z,4.30
2019-01-09T01:11:08.113Z,4.30
2019-01-09T01:14:13.781Z,4.30
2019-01-09T01:17:20.650Z,4.30
2019-01-09T01:20:30.081Z,4.30
2019-01-09T01:23:54.746Z,4.30
2019-01-09T01:27:12.083Z,4.40
2019-01-09T01:30:25.837Z,4.30
2019-01-09T01:33:37.982Z,4.30
2019-01-09T01:37:02.043Z,4.30
2019-01-09T01:40:22.378Z,4.20
2019-01-09T01:43:25.548Z,4.10
2019-01-09T01:46:43.828Z,4.00
2019-01-09T01:50:05.181Z,4.00
2019-01-09T01:53:04.840Z,4.00
2019-01-09T01:56:17.091Z,3.90
2019-01-09T01:59:07.420Z,3.90
2019-01-09T02:02:08.656Z,3.80
2019-01-09T02:05:08.175Z,3.80
2019-01-09T02:08:13.869Z,3.80
2019-01-09T02:11:56.167Z,3.80
2019-01-09T02:15:01.835Z,3.70
2019-01-09T02:17:40.566Z,3.70
2019-01-09T02:21:04.740Z,3.70
2019-01-09T02:24:11.762Z,3.70
2019-01-09T02:27:22.612Z,3.70
2019-01-09T02:30:01.492Z,3.70
2019-01-09T02:32:34.128Z,3.70
2019-01-09T02:35:05.830Z,3.70
2019-01-09T02:37:37.104Z,3.70
2019-01-09T02:40:08.852Z,3.70
2019-01-09T02:42:40.218Z,3.70
2019-01-09T02:45:11.829Z,3.70
2019-01-09T02:47:43.334Z,3.60
2019-01-09T02:50:14.824Z,3.70
2019-01-09T02:52:47.021Z,3.70
2019-01-09T02:55:18.283Z,3.70
2019-01-09T02:57:56.666Z,3.70
2019-01-09T03:00:22.633Z,3.70
2019-01-09T03:02:53.999Z,3.70
2019-01-09T03:05:25.396Z,3.70
2019-01-09T03:07:57.839Z,3.70
2019-01-09T03:10:29.064Z,3.70
2019-01-09T03:13:01.346Z,3.70
2019-01-09T03:15:34.346Z,3.70
2019-01-09T03:18:05.700Z,3.70
2019-01-09T03:20:36.875Z,3.60
2019-01-09T03:23:08.168Z,3.70
2019-01-09T03:25:39.622Z,3.70
2019-01-09T03:28:11.021Z,3.70
2019-01-09T03:30:42.259Z,3.70
2019-01-09T03:33:13.866Z,3.70
2019-01-09T03:35:45.380Z,3.70
2019-01-09T03:38:16.641Z,3.70
2019-01-09T03:40:47.983Z,3.70
2019-01-09T03:43:19.165Z,3.70
2019-01-09T03:45:50.547Z,3.70
2019-01-09T03:48:22.064Z,3.70
2019-01-09T03:50:53.258Z,3.70
2019-01-09T03:53:24.548Z,3.60
2019-01-09T03:55:55.976Z,3.60
2019-01-09T03:58:27.115Z,3.60
2019-01-09T04:00:58.292Z,3.60
2019-01-09T04:03:30.258Z,3.50
2019-01-09T04:06:01.868Z,3.50
2019-01-09T04:08:33.258Z,3.50
2019-01-09T04:11:04.970Z,3.50
2019-01-09T04:13:37.026Z,3.50
2019-01-09T04:16:08.617Z,3.50
2019-01-09T04:18:39.890Z,3.50
2019-01-09T04:21:11.162Z,3.50
2019-01-09T04:23:42.507Z,3.50
2019-01-09T04:26:13.746Z,3.50
2019-01-09T04:28:45.361Z,3.50
2019-01-09T04:31:16.844Z,3.50
2019-01-09T04:33:48.299Z,3.50
2019-01-09T04:36:19.572Z,3.40
2019-01-09T04:38:50.698Z,3.40
2019-01-09T04:41:22.029Z,3.40
2019-01-09T04:43:53.401Z,3.50
2019-01-09T04:46:24.660Z,3.50
2019-01-09T04:48:57.044Z,3.30
2019-01-09T04:51:28.355Z,3.30
2019-01-09T04:53:59.756Z,3.20
2019-01-09T04:56:31.140Z,3.20
2019-01-09T04:59:04.113Z,3.10
2019-01-09T05:01:35.595Z,3.10
2019-01-09T05:04:07.355Z,3.00
2019-01-09T05:06:39.519Z,3.00
2019-01-09T05:09:11.001Z,2.90
2019-01-09T05:11:42.311Z,2.90
2019-01-09T05:14:14.153Z,2.80
2019-01-09T05:16:48.013Z,2.80
2019-01-09T05:19:21.034Z,2.80
2019-01-09T05:21:57.523Z,2.80
2019-01-09T05:24:33.372Z,2.80
2019-01-09T05:27:04.733Z,2.90
2019-01-09T05:29:36.223Z,2.90
2019-01-09T05:32:07.658Z,2.90
2019-01-09T05:34:41.532Z,3.00
2019-01-09T05:37:14.644Z,3.00
2019-01-09T05:39:47.797Z,3.00
2019-01-09T05:42:19.110Z,3.00
2019-01-09T05:44:50.576Z,3.00
2019-01-09T05:47:22.980Z,3.00
2019-01-09T05:49:54.552Z,3.10
2019-01-09T05:52:25.960Z,3.10
2019-01-09T05:54:57.121Z,3.10
2019-01-09T05:57:28.552Z,3.10
2019-01-09T05:59:59.918Z,3.10
2019-01-09T06:02:32.050Z,3.10
2019-01-09T06:05:05.709Z,3.10
2019-01-09T06:07:37.381Z,3.10
2019-01-09T06:12:52.687Z,3.10
2019-01-09T06:15:24.079Z,3.00
2019-01-09T06:17:55.541Z,3.00
2019-01-09T06:20:28.713Z,3.00
2019-01-09T06:23:00.911Z,2.90
2019-01-09T06:25:34.200Z,2.90
2019-01-09T06:28:05.517Z,2.80
2019-01-09T06:30:37.893Z,2.80
2019-01-09T06:33:09.262Z,2.80
2019-01-09T06:35:40.700Z,2.70
2019-01-09T06:38:12.144Z,2.70
2019-01-09T06:40:43.599Z,2.70
2019-01-09T06:43:14.970Z,2.60
2019-01-09T06:45:46.296Z,2.60
2019-01-09T06:48:17.537Z,2.60
2019-01-09T06:50:48.825Z,2.60
2019-01-09T06:53:20.373Z,2.50
2019-01-09T06:55:51.897Z,2.50
2019-01-09T06:58:23.393Z,2.50
2019-01-09T07:00:54.912Z,2.50
2019-01-09T07:03:26.086Z,2.50
2019-01-09T07:05:58.724Z,2.40
2019-01-09T07:08:30.115Z,2.40
2019-01-09T07:11:01.464Z,2.40
2019-01-09T07:13:33.098Z,2.40
2019-01-09T07:16:04.465Z,2.40
2019-01-09T07:18:37.299Z,2.40
2019-01-09T07:21:08.508Z,2.40
2019-01-09T07:23:39.637Z,2.40
2019-01-09T07:26:10.885Z,2.40
2019-01-09T07:28:42.433Z,2.50
2019-01-09T07:31:13.912Z,2.50
2019-01-09T07:33:47.707Z,2.50
2019-01-09T07:36:19.266Z,2.50
2019-01-09T07:38:50.737Z,2.50
2019-01-09T07:41:22.252Z,2.50
2019-01-09T07:43:53.486Z,2.50
2019-01-09T07:46:24.665Z,2.50
2019-01-09T07:48:55.699Z,2.50
2019-01-09T07:51:28.769Z,2.50
2019-01-09T07:54:01.020Z,2.50
2019-01-09T07:56:32.392Z,2.50
2019-01-09T07:59:03.423Z,2.50
2019-01-09T08:01:34.680Z,2.60
2019-01-09T08:04:05.820Z,2.60
2019-01-09T08:06:38.122Z,2.60
2019-01-09T08:09:09.594Z,2.60
2019-01-09T08:11:41.117Z,2.60
2019-01-09T08:14:14.094Z,2.60
2019-01-09T08:16:46.184Z,2.60
2019-01-09T08:19:19.215Z,2.60
2019-01-09T08:21:51.649Z,2.70
2019-01-09T08:24:23.233Z,2.70
2019-01-09T08:26:54.452Z,2.70
2019-01-09T08:29:26.625Z,2.70
2019-01-09T08:31:58.267Z,2.70
2019-01-09T08:34:29.639Z,2.70
2019-01-09T08:37:01.084Z,2.80
2019-01-09T08:39:32.811Z,2.80
2019-01-09T08:42:04.000Z,2.80
2019-01-09T08:44:35.339Z,2.80
2019-01-09T08:47:06.623Z,2.90
2019-01-09T08:49:38.028Z,2.80
2019-01-09T08:52:09.377Z,2.90
2019-01-09T08:54:42.437Z,2.90
2019-01-09T08:57:13.956Z,2.80
2019-01-09T08:59:45.252Z,2.80
2019-01-09T09:02:18.240Z,2.80
2019-01-09T09:04:50.661Z,2.90
2019-01-09T09:07:23.628Z,2.90
2019-01-09T09:09:54.879Z,2.90
2019-01-09T09:12:27.045Z,3.00
2019-01-09T09:14:59.220Z,3.00
2019-01-09T09:17:31.412Z,3.00
2019-01-09T09:20:03.537Z,3.10
2019-01-09T09:22:34.871Z,3.10
2019-01-09T09:25:06.890Z,3.10
2019-01-09T09:27:39.722Z,3.20
2019-01-09T09:30:12.335Z,3.20
2019-01-09T09:32:43.655Z,3.30
2019-01-09T09:35:15.048Z,3.30
2019-01-09T09:37:46.609Z,3.40
2019-01-09T09:40:19.900Z,3.40
2019-01-09T09:42:51.426Z,3.40
2019-01-09T09:45:22.862Z,3.40
2019-01-09T09:47:54.224Z,3.40
2019-01-09T09:50:25.668Z,3.40
2019-01-09T09:52:57.093Z,3.50
2019-01-09T09:55:28.338Z,3.50
2019-01-09T09:58:05.631Z,3.50
2019-01-09T10:00:32.744Z,3.50
2019-01-09T10:03:04.021Z,3.50
2019-01-09T10:05:35.614Z,3.50
2019-01-09T10:08:07.908Z,3.50
2019-01-09T10:10:39.392Z,3.50
2019-01-09T10:13:11.017Z,3.50
2019-01-09T10:15:42.476Z,3.50
2019-01-09T10:18:14.825Z,3.60
2019-01-09T10:20:46.209Z,3.60
2019-01-09T10:23:17.533Z,3.80
2019-01-09T10:25:49.073Z,3.80
2019-01-09T10:28:20.044Z,3.90
2019-01-09T10:30:51.356Z,4.00
2019-01-09T10:33:27.493Z,4.10
2019-01-09T10:35:58.773Z,4.20
2019-01-09T10:38:37.895Z,4.30
2019-01-09T10:41:03.416Z,4.40
2019-01-09T10:43:34.602Z,4.40
2019-01-09T10:46:05.928Z,4.50
2019-01-09T10:48:40.256Z,4.60
2019-01-09T10:51:17.328Z,4.70
2019-01-09T10:53:48.415Z,4.80
2019-01-09T10:56:20.393Z,4.90
2019-01-09T10:58:51.905Z,5.10
2019-01-09T11:01:35.396Z,5.30
2019-01-09T11:04:06.889Z,5.40
2019-01-09T11:06:39.713Z,5.50
2019-01-09T11:09:11.320Z,5.60
2019-01-09T11:11:54.473Z,5.70
2019-01-09T11:14:26.085Z,5.70
2019-01-09T11:16:57.412Z,5.80
2019-01-09T11:19:29.860Z,5.80
2019-01-09T11:22:01.147Z,5.90
2019-01-09T11:24:32.610Z,6.00
2019-01-09T11:27:03.956Z,6.00
2019-01-09T11:29:35.142Z,5.90
2019-01-09T11:32:06.582Z,5.90
2019-01-09T11:34:38.039Z,5.90
2019-01-09T11:37:09.437Z,5.80
2019-01-09T11:39:40.688Z,5.70
2019-01-09T11:42:12.166Z,5.70
2019-01-09T11:44:43.785Z,5.70
2019-01-09T11:47:15.024Z,5.70
2019-01-09T11:49:46.434Z,5.70
2019-01-09T11:52:17.824Z,5.80
2019-01-09T11:54:49.064Z,5.80
2019-01-09T11:57:20.176Z,5.80
2019-01-09T11:59:51.552Z,6.00
2019-01-09T12:02:23.096Z,6.20
2019-01-09T12:04:54.530Z,6.40
2019-01-09T12:07:25.876Z,6.40
2019-01-09T12:09:57.963Z,6.40
2019-01-09T12:12:31.581Z,6.30
2019-01-09T12:15:02.801Z,6.20
2019-01-09T12:17:34.087Z,6.20
2019-01-09T12:20:06.622Z,6.10
2019-01-09T12:22:38.012Z,6.00
2019-01-09T12:25:10.358Z,5.90
2019-01-09T12:27:41.411Z,6.00
2019-01-09T12:30:19.568Z,5.90
2019-01-09T12:32:50.836Z,5.90
2019-01-09T12:35:21.970Z,5.90
2019-01-09T12:37:54.390Z,5.90
2019-01-09T12:40:27.027Z,5.90
2019-01-09T12:42:58.516Z,5.90
2019-01-09T12:45:30.009Z,5.80
2019-01-09T12:48:01.414Z,5.80
2019-01-09T12:50:32.678Z,6.00
2019-01-09T12:53:03.962Z,6.00
2019-01-09T12:55:35.571Z,5.80
2019-01-09T12:58:06.970Z,5.90
2019-01-09T13:00:38.363Z,5.90
2019-01-09T13:03:09.718Z,5.90
2019-01-09T13:05:41.589Z,6.00
2019-01-09T13:08:13.994Z,6.20
2019-01-09T13:10:46.508Z,6.30
2019-01-09T13:13:17.878Z,6.30
2019-01-09T13:15:52.309Z,6.20
2019-01-09T13:18:25.164Z,6.10
2019-01-09T13:20:56.561Z,6.00
2019-01-09T13:23:28.014Z,6.00
2019-01-09T13:26:00.310Z,6.10
2019-01-09T13:28:31.601Z,6.30
2019-01-09T13:31:02.950Z,6.40
2019-01-09T13:33:34.204Z,6.40
2019-01-09T13:36:05.770Z,6.40
2019-01-09T13:38:37.411Z,6.40
2019-01-09T13:41:08.757Z,6.20
2019-01-09T13:43:39.913Z,6.20
2019-01-09T13:46:11.449Z,6.10
2019-01-09T13:49:02.751Z,6.20
2019-01-09T13:51:34.285Z,6.10
2019-01-09T13:54:06.024Z,6.10
2019-01-09T13:56:37.737Z,6.10
2019-01-09T13:59:09.256Z,6.10
2019-01-09T14:01:40.604Z,6.10
2019-01-09T14:04:12.202Z,5.90
2019-01-09T14:06:43.779Z,5.90
2019-01-09T14:09:15.122Z,5.70
2019-01-09T14:11:46.552Z,5.70
2019-01-09T14:14:17.700Z,5.60
2019-01-09T14:16:49.302Z,5.50
2019-01-09T14:19:21.881Z,5.50
2019-01-09T14:21:53.570Z,5.40
2019-01-09T14:24:29.566Z,5.30
2019-01-09T14:27:25.658Z,5.30
2019-01-09T14:29:57.140Z,5.30
2019-01-09T14:32:28.589Z,5.20
2019-01-09T14:35:00.167Z,5.20
2019-01-09T14:37:32.984Z,5.10
2019-01-09T14:40:04.696Z,5.10
2019-01-09T14:42:36.210Z,5.00
2019-01-09T14:45:43.648Z,5.00
2019-01-09T14:48:16.284Z,5.00
2019-01-09T14:50:50.200Z,5.00
2019-01-09T14:53:21.868Z,5.00
2019-01-09T14:56:00.072Z,5.00
2019-01-09T14:58:42.088Z,5.00
2019-01-09T15:01:13.549Z,4.90
2019-01-09T15:03:45.024Z,4.90
2019-01-09T15:06:16.438Z,4.80
2019-01-09T15:08:49.806Z,4.80
2019-01-09T15:11:21.202Z,4.80
2019-01-09T15:13:54.290Z,4.80
2019-01-09T15:16:25.702Z,4.70
2019-01-09T15:18:57.065Z,4.70
2019-01-09T15:21:28.364Z,4.70
2019-01-09T15:24:08.222Z,4.70
2019-01-09T15:26:32.772Z,4.60
2019-01-09T15:29:06.452Z,4.60
2019-01-09T15:31:38.209Z,4.50
2019-01-09T15:34:10.676Z,4.50
2019-01-09T15:36:42.035Z,4.40
2019-01-09T15:39:13.397Z,4.40
2019-01-09T15:41:45.069Z,4.30
2019-01-09T15:44:17.492Z,4.30
2019-01-09T15:46:49.893Z,4.30
2019-01-09T15:49:22.361Z,4.30
2019-01-09T15:51:54.748Z,4.20
2019-01-09T15:54:26.191Z,4.10
2019-01-09T15:56:57.512Z,4.10
2019-01-09T15:59:28.617Z,4.10
2019-01-09T16:02:00.063Z,4.00
2019-01-09T16:04:31.586Z,4.00
2019-01-09T16:07:05.267Z,4.00
2019-01-09T16:09:36.756Z,3.90
2019-01-09T16:12:08.202Z,3.90
2019-01-09T16:14:39.770Z,3.90
2019-01-09T16:17:11.323Z,3.90
2019-01-09T16:19:44.519Z,3.80
2019-01-09T16:22:16.165Z,3.80
2019-01-09T16:24:47.976Z,3.80
2019-01-09T16:27:19.405Z,3.80
2019-01-09T16:29:50.613Z,3.80
2019-01-09T16:32:22.169Z,3.80
2019-01-09T16:34:53.704Z,3.70
2019-01-09T16:37:25.166Z,3.70
2019-01-09T16:39:56.481Z,3.70
2019-01-09T16:42:28.094Z,3.60
2019-01-09T16:44:59.484Z,3.60
2019-01-09T16:47:30.491Z,3.60
2019-01-09T16:50:02.026Z,3.60
2019-01-09T16:52:33.666Z,3.50
2019-01-09T16:55:06.329Z,3.50
2019-01-09T16:57:37.913Z,3.50
2019-01-09T17:00:15.454Z,3.50
2019-01-09T17:02:46.802Z,3.50
2019-01-09T17:05:18.186Z,3.40
2019-01-09T17:07:50.512Z,3.40
2019-01-09T17:10:22.092Z,3.40
2019-01-09T17:12:54.154Z,3.30
2019-01-09T17:15:25.759Z,3.30
2019-01-09T17:17:56.986Z,3.30
2019-01-09T17:20:28.283Z,3.30
2019-01-09T17:22:59.921Z,3.30
2019-01-09T17:25:32.421Z,3.30
2019-01-09T17:28:03.868Z,3.30
2019-01-09T17:30:35.368Z,3.30
2019-01-09T17:33:07.379Z,3.30
2019-01-09T17:35:39.933Z,3.30
2019-01-09T17:38:11.315Z,3.30
2019-01-09T17:40:42.785Z,3.30
2019-01-09T17:43:15.501Z,3.30
2019-01-09T17:45:46.922Z,3.20
2019-01-09T17:48:18.241Z,3.20
2019-01-09T17:50:49.902Z,3.20
2019-01-09T17:53:21.465Z,3.20
2019-01-09T17:55:52.931Z,3.20
2019-01-09T17:58:25.265Z,3.20
2019-01-09T18:00:56.531Z,3.20
2019-01-09T18:03:27.983Z,3.10
2019-01-09T18:05:59.542Z,3.10
2019-01-09T18:08:31.987Z,3.10
2019-01-09T18:11:03.577Z,3.10
2019-01-09T18:13:34.889Z,3.10
2019-01-09T18:16:06.443Z,3.10
2019-01-09T18:18:38.764Z,3.10
2019-01-09T18:21:10.218Z,3.10
2019-01-09T18:23:41.710Z,3.10
2019-01-09T18:26:13.868Z,3.10
2019-01-09T18:28:46.553Z,3.10
2019-01-09T18:31:57.845Z,3.10
2019-01-09T18:34:43.939Z,3.10
2019-01-09T18:37:55.503Z,3.20
2019-01-09T18:41:29.052Z,3.10
2019-01-09T18:44:31.086Z,3.10
2019-01-09T18:47:19.287Z,3.20
2019-01-09T18:50:31.718Z,3.20
2019-01-09T18:53:09.194Z,3.20
2019-01-09T18:55:42.268Z,3.20
2019-01-09T18:58:13.886Z,3.20
2019-01-09T19:00:45.168Z,3.10
2019-01-09T19:03:16.664Z,3.10
2019-01-09T19:05:48.057Z,3.10
2019-01-09T19:08:19.467Z,3.10
2019-01-09T19:10:51.006Z,3.10
2019-01-09T19:13:22.526Z,3.10
2019-01-09T19:15:54.124Z,3.20
2019-01-09T19:18:25.745Z,3.20
2019-01-09T19:20:57.307Z,3.20
2019-01-09T19:23:28.896Z,3.10
2019-01-09T19:26:00.298Z,3.10
2019-01-09T19:28:34.583Z,3.10
2019-01-09T19:31:07.756Z,3.10
2019-01-09T19:33:39.073Z,3.10
2019-01-09T19:36:10.841Z,3.10
2019-01-09T19:38:42.836Z,3.10
2019-01-09T19:41:17.269Z,3.10
2019-01-09T19:43:48.709Z,3.10
2019-01-09T19:46:20.165Z,3.10
2019-01-09T19:48:51.794Z,3.10
2019-01-09T19:51:24.488Z,3.10
2019-01-09T19:53:56.000Z,3.10
2019-01-09T19:56:27.502Z,3.10
2019-01-09T19:58:59.226Z,3.00
2019-01-09T20:01:31.018Z,3.00
2019-01-09T20:04:02.736Z,3.00
2019-01-09T20:06:34.297Z,3.00
2019-01-09T20:09:08.652Z,3.00
2019-01-09T20:11:40.398Z,3.00
2019-01-09T20:14:12.185Z,2.90
2019-01-09T20:16:43.829Z,3.00
2019-01-09T20:19:16.259Z,2.90
2019-01-09T20:21:47.869Z,2.90
2019-01-09T20:24:19.443Z,2.90
2019-01-09T20:26:50.871Z,2.90
2019-01-09T20:29:22.836Z,2.90
2019-01-09T20:31:54.720Z,2.90
2019-01-09T20:34:26.360Z,2.80
2019-01-09T20:36:57.972Z,2.80
2019-01-09T20:39:29.527Z,2.80
2019-01-09T20:42:01.178Z,2.80
2019-01-09T20:44:32.923Z,2.80
2019-01-09T20:47:04.731Z,2.80
2019-01-09T20:49:36.231Z,2.80
2019-01-09T20:52:08.254Z,2.70
2019-01-09T20:54:39.687Z,2.70
2019-01-09T20:57:12.207Z,2.70
2019-01-09T20:59:43.893Z,2.70
2019-01-09T21:02:15.555Z,2.70
2019-01-09T21:04:47.306Z,2.60
2019-01-09T21:07:18.859Z,2.60
2019-01-09T21:09:50.553Z,2.60
2019-01-09T21:12:21.975Z,2.60
2019-01-09T21:14:53.407Z,2.50
2019-01-09T21:17:24.825Z,2.50
2019-01-09T21:19:56.442Z,2.50
2019-01-09T21:22:28.090Z,2.50
2019-01-09T21:25:00.218Z,2.40
2019-01-09T21:27:31.378Z,2.40
2019-01-09T21:30:02.959Z,2.30
2019-01-09T21:32:35.483Z,2.30
2019-01-09T21:35:08.030Z,2.30
2019-01-09T21:37:39.157Z,2.30
2019-01-09T21:40:16.905Z,2.40
2019-01-09T21:42:48.398Z,2.40
2019-01-09T21:45:19.961Z,2.40
2019-01-09T21:47:51.303Z,2.30
2019-01-09T21:50:22.795Z,2.30
2019-01-09T21:52:54.349Z,2.30
2019-01-09T21:55:25.771Z,2.30
2019-01-09T21:57:57.204Z,2.20
2019-01-09T22:00:29.213Z,2.20
2019-01-09T22:03:00.581Z,2.20
2019-01-09T22:05:32.147Z,2.20
2019-01-09T22:08:03.865Z,2.20
2019-01-09T22:10:36.987Z,2.20
2019-01-09T22:13:09.249Z,2.20
2019-01-09T22:15:40.957Z,2.10
2019-01-09T22:18:12.412Z,2.10
2019-01-09T22:20:43.882Z,2.10
2019-01-09T22:23:15.347Z,2.00
2019-01-09T22:25:46.805Z,2.00
2019-01-09T22:28:17.963Z,2.00
2019-01-09T22:30:49.458Z,2.00
2019-01-09T22:33:22.639Z,2.00
2019-01-09T22:35:53.845Z,2.00
2019-01-09T22:38:25.371Z,2.00
2019-01-09T22:40:56.907Z,1.90
2019-01-09T22:43:29.437Z,1.90
2019-01-09T22:46:00.962Z,1.90
2019-01-09T22:48:32.410Z,1.90
2019-01-09T22:51:03.953Z,1.80
2019-01-09T22:53:35.564Z,1.80
2019-01-09T22:56:07.074Z,1.80
2019-01-09T22:58:38.543Z,1.70
2019-01-09T23:01:22.753Z,1.70
2019-01-09T23:03:55.453Z,1.70
2019-01-09T23:06:26.641Z,1.70
2019-01-09T23:08:58.048Z,1.70
2019-01-09T23:11:29.607Z,1.70
2019-01-09T23:14:00.972Z,1.60
2019-01-09T23:16:32.483Z,1.60
2019-01-09T23:19:06.720Z,1.60
2019-01-09T23:21:38.288Z,1.50
2019-01-09T23:24:10.561Z,1.50
2019-01-09T23:26:42.805Z,1.50
2019-01-09T23:29:14.041Z,1.50
2019-01-09T23:31:46.160Z,1.50
2019-01-09T23:34:17.602Z,1.40
2019-01-09T23:36:49.154Z,1.50
2019-01-09T23:39:20.716Z,1.40
2019-01-09T23:41:52.393Z,1.40
2019-01-09T23:44:25.025Z,1.40
2019-01-09T23:46:56.564Z,1.40
2019-01-09T23:49:27.893Z,1.40
2019-01-09T23:51:59.614Z,1.40
2019-01-09T23:54:31.099Z,1.30
2019-01-09T23:57:02.330Z,1.30
2019-01-09T23:59:33.642Z,1.30
